Time;durP1;ratioP1;P1;durP2;ratioP2;P2;SDS_P1;SDS_P2;PMS_P1;PMS_P2;Temp;Humidity;BMP_temperature;BMP_pressure;BME280_temperature;BME280_humidity;BME280_pressure;Samples;Min_cycle;Max_cycle;Signal;HPM_P1;HPM_P2
2023/06/20 00:00:09;;;;;;;22.77;4.93;;;;;;;;;;5054173;28;20016;-60
2023/06/20 00:02:34;;;;;;;17.77;4.70;;;;;;;;;;5053990;28;20056;-60
2023/06/20 00:05:00;;;;;;;19.45;4.70;;;;;;;;;;5053587;28;20388;-59
2023/06/20 00:07:26;;;;;;;18.77;3.88;;;;;;;;;;5053690;28;20029;-60
2023/06/20 00:09:52;;;;;;;19.98;4.70;;;;;;;;;;5052486;28;20024;-59
2023/06/20 00:12:19;;;;;;;22.52;4.10;;;;;;;;;;5053374;28;20102;-60
2023/06/20 00:14:44;;;;;;;24.23;5.30;;;;;;;;;;5052765;28;20483;-60
2023/06/20 00:17:10;;;;;;;15.77;4.30;;;;;;;;;;5053251;28;20128;-60
2023/06/20 00:19:35;;;;;;;23.48;5.00;;;;;;;;;;5053352;28;20377;-60
2023/06/20 00:22:05;;;;;;;16.85;4.53;;;;;;;;;;5053548;28;20082;-61
2023/06/20 00:24:32;;;;;;;17.77;4.60;;;;;;;;;;5053618;28;20032;-61
2023/06/20 00:27:02;;;;;;;14.65;4.20;;;;;;;;;;5053154;28;20032;-60
2023/06/20 00:29:27;;;;;;;16.60;4.35;;;;;;;;;;5053303;28;20086;-61
2023/06/20 00:31:53;;;;;;;11.65;4.45;;;;;;;;;;5052877;28;20127;-62
2023/06/20 00:34:19;;;;;;;17.15;5.00;;;;;;;;;;5053440;28;20048;-61
2023/06/20 00:36:44;;;;;;;21.20;4.72;;;;;;;;;;5053037;28;20025;-61
2023/06/20 00:39:10;;;;;;;20.45;4.32;;;;;;;;;;5053114;28;20029;-60
2023/06/20 00:41:36;;;;;;;22.33;4.50;;;;;;;;;;5052943;28;20108;-60
2023/06/20 00:44:03;;;;;;;13.02;4.35;;;;;;;;;;5053017;28;20116;-62
2023/06/20 00:46:36;;;;;;;13.95;4.13;;;;;;;;;;5052861;28;20032;-61
2023/06/20 00:49:05;;;;;;;9.15;3.95;;;;;;;;;;5051531;28;20029;-61
2023/06/20 00:51:31;;;;;;;18.25;4.78;;;;;;;;;;5052886;28;20036;-61
2023/06/20 00:53:58;;;;;;;17.67;4.88;;;;;;;;;;5052609;28;20025;-61
2023/06/20 00:56:24;;;;;;;16.10;4.75;;;;;;;;;;5052842;28;20032;-62
2023/06/20 00:58:50;;;;;;;20.40;4.40;;;;;;;;;;5053009;28;20136;-61
2023/06/20 01:01:16;;;;;;;19.02;4.18;;;;;;;;;;5051954;28;20522;-61
2023/06/20 01:03:43;;;;;;;20.98;4.72;;;;;;;;;;5052353;28;20028;-60
2023/06/20 01:06:33;;;;;;;25.75;5.30;;;;;;;;;;5052885;28;20033;-60
2023/06/20 01:09:34;;;;;;;22.35;4.70;;;;;;;;;;5052689;28;20377;-60
2023/06/20 01:12:11;;;;;;;26.30;5.07;;;;;;;;;;5048637;28;20044;-60
2023/06/20 01:14:52;;;;;;;30.42;5.07;;;;;;;;;;5052192;28;20469;-59
2023/06/20 01:17:27;;;;;;;37.30;4.90;;;;;;;;;;5052492;28;20106;-59
2023/06/20 01:20:08;;;;;;;25.83;4.97;;;;;;;;;;5052213;28;20028;-60
2023/06/20 01:22:41;;;;;;;24.17;4.57;;;;;;;;;;5052366;28;20032;-62
2023/06/20 01:25:12;;;;;;;22.17;4.72;;;;;;;;;;5052179;28;20063;-61
2023/06/20 01:27:47;;;;;;;18.27;5.63;;;;;;;;;;5052212;28;20029;-59
2023/06/20 01:30:21;;;;;;;23.52;5.20;;;;;;;;;;5052270;28;20072;-59
2023/06/20 01:32:49;;;;;;;20.60;5.72;;;;;;;;;;5051526;28;20155;-60
2023/06/20 01:35:20;;;;;;;26.30;5.05;;;;;;;;;;5052098;28;20142;-60
2023/06/20 01:37:47;;;;;;;24.85;4.68;;;;;;;;;;5051903;28;20025;-60
2023/06/20 01:40:19;;;;;;;10.00;4.53;;;;;;;;;;5051798;28;20504;-59
2023/06/20 01:42:46;;;;;;;15.45;5.70;;;;;;;;;;5051989;28;20037;-58
2023/06/20 01:45:13;;;;;;;10.45;5.47;;;;;;;;;;5051853;28;20021;-58
2023/06/20 01:47:40;;;;;;;12.23;5.57;;;;;;;;;;5051693;28;20025;-57
2023/06/20 01:50:07;;;;;;;10.82;5.95;;;;;;;;;;5051683;28;20029;-58
2023/06/20 01:52:34;;;;;;;9.02;6.20;;;;;;;;;;5051463;28;20464;-58
2023/06/20 01:55:04;;;;;;;11.10;5.63;;;;;;;;;;5048595;28;20090;-58
2023/06/20 01:57:31;;;;;;;8.45;5.53;;;;;;;;;;5048977;28;20028;-58
2023/06/20 01:59:58;;;;;;;10.77;5.65;;;;;;;;;;5049736;28;20041;-58
2023/06/20 02:02:25;;;;;;;11.10;5.18;;;;;;;;;;5048235;28;20040;-58
2023/06/20 02:04:56;;;;;;;11.98;5.00;;;;;;;;;;5048510;28;20071;-57
2023/06/20 02:07:22;;;;;;;15.63;5.85;;;;;;;;;;5048189;28;20055;-57
2023/06/20 02:09:49;;;;;;;13.85;6.10;;;;;;;;;;5050988;28;20596;-59
2023/06/20 02:12:16;;;;;;;12.60;5.40;;;;;;;;;;5047291;28;20021;-60
2023/06/20 02:14:43;;;;;;;11.73;5.70;;;;;;;;;;5050926;28;20037;-59
2023/06/20 02:17:14;;;;;;;11.57;5.55;;;;;;;;;;5050953;28;20037;-59
2023/06/20 02:19:40;;;;;;;10.43;5.65;;;;;;;;;;5050930;28;20569;-59
2023/06/20 02:22:07;;;;;;;11.07;5.82;;;;;;;;;;5052487;28;20052;-59
2023/06/20 02:24:34;;;;;;;12.50;5.93;;;;;;;;;;5052643;28;20029;-55
2023/06/20 02:27:02;;;;;;;6.82;5.15;;;;;;;;;;5051152;28;20381;-58
2023/06/20 02:29:34;;;;;;;9.82;5.28;;;;;;;;;;5040326;28;20049;-59
2023/06/20 02:32:01;;;;;;;14.10;5.90;;;;;;;;;;5047858;28;20052;-60
2023/06/20 02:34:28;;;;;;;15.70;5.32;;;;;;;;;;5050514;28;20036;-60
2023/06/20 02:36:57;;;;;;;12.57;5.75;;;;;;;;;;5051213;28;20024;-60
2023/06/20 02:39:24;;;;;;;6.45;5.03;;;;;;;;;;5049598;28;20037;-61
2023/06/20 02:41:49;;;;;;;12.73;5.57;;;;;;;;;;5050577;28;20052;-59
2023/06/20 02:44:15;;;;;;;16.85;5.97;;;;;;;;;;5049832;28;20465;-59
2023/06/20 02:46:50;;;;;;;14.55;5.38;;;;;;;;;;5050580;28;20021;-60
2023/06/20 02:49:18;;;;;;;10.63;5.80;;;;;;;;;;5049052;28;20025;-60
2023/06/20 02:52:05;;;;;;;11.02;5.20;;;;;;;;;;5048545;28;20032;-60
2023/06/20 02:54:55;;;;;;;11.63;6.03;;;;;;;;;;5048496;28;20389;-60
2023/06/20 02:57:22;;;;;;;13.05;5.47;;;;;;;;;;5050033;28;20021;-60
2023/06/20 02:59:58;;;;;;;6.88;5.43;;;;;;;;;;5049518;28;20112;-60
2023/06/20 03:02:29;;;;;;;9.90;5.43;;;;;;;;;;5050064;28;20481;-60
2023/06/20 03:04:59;;;;;;;9.75;5.63;;;;;;;;;;5049920;28;20033;-59
2023/06/20 03:07:27;;;;;;;12.20;5.60;;;;;;;;;;5049914;28;20025;-59
2023/06/20 03:09:55;;;;;;;7.70;5.13;;;;;;;;;;5050284;28;20057;-60
2023/06/20 03:12:22;;;;;;;13.07;5.30;;;;;;;;;;5050266;28;20021;-60
2023/06/20 03:14:47;;;;;;;11.88;5.10;;;;;;;;;;5050921;28;20040;-59
2023/06/20 03:17:13;;;;;;;9.90;5.05;;;;;;;;;;5051115;28;20029;-59
2023/06/20 03:19:39;;;;;;;7.75;5.20;;;;;;;;;;5052104;28;20013;-60
2023/06/20 03:22:05;;;;;;;9.57;5.32;;;;;;;;;;5051948;28;20194;-59
2023/06/20 03:24:30;;;;;;;7.93;5.40;;;;;;;;;;5052147;28;20107;-59
2023/06/20 03:26:56;;;;;;;9.85;5.35;;;;;;;;;;5055972;28;20017;-59
2023/06/20 03:29:21;;;;;;;11.23;5.20;;;;;;;;;;5056203;28;20032;-60
2023/06/20 03:31:47;;;;;;;11.18;5.93;;;;;;;;;;5056000;28;20116;-59
2023/06/20 03:34:12;;;;;;;8.80;5.60;;;;;;;;;;5056067;28;20031;-59
2023/06/20 03:36:38;;;;;;;7.32;5.22;;;;;;;;;;5056062;28;20469;-60
2023/06/20 03:39:03;;;;;;;7.90;4.80;;;;;;;;;;5055895;28;20043;-60
2023/06/20 03:41:29;;;;;;;10.65;5.28;;;;;;;;;;5055661;28;20494;-60
2023/06/20 03:43:54;;;;;;;6.05;5.05;;;;;;;;;;5055808;28;20503;-60
2023/06/20 03:46:20;;;;;;;5.18;4.68;;;;;;;;;;5055661;28;20033;-59
2023/06/20 03:48:46;;;;;;;7.90;5.55;;;;;;;;;;5055582;28;20025;-60
2023/06/20 03:51:11;;;;;;;11.73;5.40;;;;;;;;;;5055893;28;20054;-59
2023/06/20 03:53:37;;;;;;;8.05;5.30;;;;;;;;;;5055506;28;20083;-61
2023/06/20 03:56:02;;;;;;;14.57;5.65;;;;;;;;;;5055396;28;20029;-60
2023/06/20 03:58:28;;;;;;;10.32;5.35;;;;;;;;;;5055467;28;20078;-60
2023/06/20 04:00:54;;;;;;;10.25;5.40;;;;;;;;;;5055377;28;20082;-60
2023/06/20 04:03:19;;;;;;;9.63;5.10;;;;;;;;;;5055314;28;20107;-60
2023/06/20 04:05:45;;;;;;;5.47;4.95;;;;;;;;;;5055245;28;20036;-59
2023/06/20 04:08:10;;;;;;;7.38;5.38;;;;;;;;;;5055256;28;20024;-60
2023/06/20 04:10:37;;;;;;;7.53;5.00;;;;;;;;;;5055211;28;20029;-60
2023/06/20 04:13:03;;;;;;;6.72;5.30;;;;;;;;;;5055231;28;20024;-60
2023/06/20 04:15:29;;;;;;;8.38;5.10;;;;;;;;;;5054949;28;20037;-60
2023/06/20 04:17:55;;;;;;;8.98;5.18;;;;;;;;;;5055043;28;20037;-60
2023/06/20 04:20:20;;;;;;;11.82;5.50;;;;;;;;;;5054933;28;20037;-60
2023/06/20 04:22:46;;;;;;;10.95;5.20;;;;;;;;;;5055255;28;20103;-60
2023/06/20 04:25:15;;;;;;;10.70;5.40;;;;;;;;;;5054890;28;20021;-60
2023/06/20 04:27:41;;;;;;;7.72;5.20;;;;;;;;;;5055141;28;20044;-60
2023/06/20 04:30:07;;;;;;;6.80;5.20;;;;;;;;;;5054819;28;20033;-60
2023/06/20 04:32:34;;;;;;;5.78;5.15;;;;;;;;;;5070055;28;20052;-60
2023/06/20 04:35:00;;;;;;;8.35;5.28;;;;;;;;;;5054885;28;20067;-60
2023/06/20 04:37:25;;;;;;;7.00;5.30;;;;;;;;;;5053355;28;20430;-60
2023/06/20 04:39:51;;;;;;;8.57;5.28;;;;;;;;;;5054641;28;20031;-60
2023/06/20 04:42:17;;;;;;;11.73;5.03;;;;;;;;;;5053283;28;20027;-60
2023/06/20 04:44:48;;;;;;;6.65;5.35;;;;;;;;;;5054500;28;20060;-60
2023/06/20 04:47:14;;;;;;;7.10;5.57;;;;;;;;;;5054466;28;20564;-60
2023/06/20 04:49:43;;;;;;;10.57;5.30;;;;;;;;;;5054437;28;20112;-60
2023/06/20 04:52:09;;;;;;;6.90;5.32;;;;;;;;;;5054406;28;20473;-61
2023/06/20 04:54:34;;;;;;;6.28;5.38;;;;;;;;;;5054590;28;20079;-60
2023/06/20 04:57:02;;;;;;;7.65;5.30;;;;;;;;;;5054619;28;20420;-60
2023/06/20 04:59:27;;;;;;;6.15;4.70;;;;;;;;;;5054284;28;20021;-60
2023/06/20 05:01:53;;;;;;;7.00;5.47;;;;;;;;;;5054436;28;20074;-61
2023/06/20 05:04:19;;;;;;;6.75;5.22;;;;;;;;;;5054507;28;20021;-60
2023/06/20 05:06:48;;;;;;;6.90;4.90;;;;;;;;;;5052854;28;20032;-61
2023/06/20 05:09:13;;;;;;;7.73;5.97;;;;;;;;;;5054135;28;20036;-60
2023/06/20 05:11:39;;;;;;;5.57;4.93;;;;;;;;;;5053972;28;20029;-61
2023/06/20 05:14:05;;;;;;;8.48;5.40;;;;;;;;;;5054010;28;20378;-60
2023/06/20 05:16:30;;;;;;;10.48;5.10;;;;;;;;;;5053903;28;20108;-61
2023/06/20 05:18:56;;;;;;;7.45;5.30;;;;;;;;;;5052637;28;20032;-61
2023/06/20 05:21:21;;;;;;;6.93;4.72;;;;;;;;;;5053803;28;20485;-60
2023/06/20 05:23:47;;;;;;;8.75;5.13;;;;;;;;;;5054139;28;20032;-60
2023/06/20 05:26:12;;;;;;;5.82;5.22;;;;;;;;;;5053754;28;20091;-60
2023/06/20 05:28:38;;;;;;;8.35;5.07;;;;;;;;;;5054060;28;20100;-60
2023/06/20 05:31:04;;;;;;;9.02;4.70;;;;;;;;;;5053765;28;20029;-60
2023/06/20 05:33:30;;;;;;;7.15;4.97;;;;;;;;;;5053570;28;20048;-60
2023/06/20 05:35:57;;;;;;;7.25;5.30;;;;;;;;;;5053469;28;20086;-61
2023/06/20 05:38:22;;;;;;;7.00;5.38;;;;;;;;;;5053605;28;20028;-60
2023/06/20 05:40:48;;;;;;;6.47;5.38;;;;;;;;;;5053486;28;20043;-60
2023/06/20 05:43:14;;;;;;;5.90;4.82;;;;;;;;;;5053498;28;20262;-60
2023/06/20 05:45:40;;;;;;;7.22;5.78;;;;;;;;;;5053411;28;20086;-60
2023/06/20 05:48:08;;;;;;;7.97;4.80;;;;;;;;;;5053305;28;20021;-59
2023/06/20 05:50:35;;;;;;;5.97;4.80;;;;;;;;;;5053292;28;20025;-60
2023/06/20 05:53:00;;;;;;;6.00;4.68;;;;;;;;;;5051915;28;20037;-59
2023/06/20 05:55:26;;;;;;;5.63;4.80;;;;;;;;;;5053179;28;20021;-60
2023/06/20 05:57:52;;;;;;;8.10;5.22;;;;;;;;;;5051876;28;20143;-60
2023/06/20 06:00:18;;;;;;;5.85;5.10;;;;;;;;;;5053051;28;20060;-60
2023/06/20 06:02:46;;;;;;;8.70;5.38;;;;;;;;;;5051730;28;20029;-60
2023/06/20 06:05:12;;;;;;;7.43;4.75;;;;;;;;;;5053005;28;20033;-61
2023/06/20 06:07:38;;;;;;;6.07;5.00;;;;;;;;;;5053017;28;20389;-61
2023/06/20 06:10:08;;;;;;;7.65;4.82;;;;;;;;;;5051612;28;20032;-61
2023/06/20 06:12:37;;;;;;;7.32;5.15;;;;;;;;;;5053180;28;20476;-60
2023/06/20 06:15:04;;;;;;;6.32;4.93;;;;;;;;;;5052760;28;20435;-60
2023/06/20 06:17:31;;;;;;;6.05;5.03;;;;;;;;;;5052872;28;20060;-60
2023/06/20 06:19:57;;;;;;;8.95;5.15;;;;;;;;;;5052960;28;20021;-60
2023/06/20 06:22:23;;;;;;;11.88;4.90;;;;;;;;;;5053049;28;20033;-61
2023/06/20 06:24:49;;;;;;;6.90;5.07;;;;;;;;;;5052540;28;20054;-61
2023/06/20 06:27:14;;;;;;;6.28;5.40;;;;;;;;;;5052725;28;20024;-61
2023/06/20 06:29:40;;;;;;;6.82;4.88;;;;;;;;;;5052354;28;20025;-60
2023/06/20 06:32:07;;;;;;;5.97;4.85;;;;;;;;;;5052229;28;20501;-61
2023/06/20 06:34:33;;;;;;;6.68;5.20;;;;;;;;;;5052396;28;20472;-61
2023/06/20 06:37:01;;;;;;;6.00;4.78;;;;;;;;;;5052411;28;20085;-61
2023/06/20 06:39:27;;;;;;;8.02;5.47;;;;;;;;;;5052323;28;20108;-61
2023/06/20 06:41:52;;;;;;;7.93;5.00;;;;;;;;;;5052495;28;20100;-61
2023/06/20 06:44:18;;;;;;;7.70;5.20;;;;;;;;;;5052384;28;20472;-61
2023/06/20 06:46:44;;;;;;;5.82;4.82;;;;;;;;;;5052363;28;20068;-60
2023/06/20 06:49:10;;;;;;;5.32;4.80;;;;;;;;;;5052263;28;20064;-61
2023/06/20 06:51:39;;;;;;;5.82;5.13;;;;;;;;;;5052546;28;20465;-61
2023/06/20 06:54:05;;;;;;;9.50;5.10;;;;;;;;;;5051014;28;20465;-61
2023/06/20 06:56:30;;;;;;;6.32;4.85;;;;;;;;;;5052179;28;20106;-61
2023/06/20 06:59:00;;;;;;;5.40;4.70;;;;;;;;;;5051939;28;20032;-62
2023/06/20 07:01:26;;;;;;;6.07;4.78;;;;;;;;;;5051799;28;20039;-61
2023/06/20 07:03:52;;;;;;;7.15;4.70;;;;;;;;;;5052091;28;20033;-60
2023/06/20 07:06:18;;;;;;;7.22;4.82;;;;;;;;;;5052118;28;20435;-61
2023/06/20 07:08:43;;;;;;;7.82;4.80;;;;;;;;;;5052256;28;20536;-62
2023/06/20 07:11:09;;;;;;;7.32;5.63;;;;;;;;;;5052050;28;20036;-61
2023/06/20 07:13:34;;;;;;;6.13;5.30;;;;;;;;;;5052030;28;20484;-61
2023/06/20 07:16:00;;;;;;;5.47;4.82;;;;;;;;;;5050651;28;20037;-61
2023/06/20 07:18:25;;;;;;;7.05;5.20;;;;;;;;;;5052071;28;20048;-61
2023/06/20 07:20:51;;;;;;;6.03;4.60;;;;;;;;;;5052068;28;20021;-61
2023/06/20 07:23:17;;;;;;;6.40;4.72;;;;;;;;;;5051924;28;20031;-61
2023/06/20 07:25:42;;;;;;;7.68;4.97;;;;;;;;;;5052013;28;20032;-60
2023/06/20 07:28:08;;;;;;;6.30;4.85;;;;;;;;;;5051983;28;20021;-60
2023/06/20 07:30:33;;;;;;;5.70;4.88;;;;;;;;;;5052214;28;20021;-60
2023/06/20 07:32:59;;;;;;;6.38;4.95;;;;;;;;;;5051804;28;20489;-60
2023/06/20 07:35:25;;;;;;;5.25;4.65;;;;;;;;;;5051842;28;20086;-60
2023/06/20 07:37:50;;;;;;;5.95;4.90;;;;;;;;;;5051792;28;20158;-60
2023/06/20 07:40:16;;;;;;;5.55;4.72;;;;;;;;;;5051917;28;20417;-60
2023/06/20 07:42:41;;;;;;;5.50;4.68;;;;;;;;;;5051768;28;20028;-60
2023/06/20 07:45:07;;;;;;;6.22;4.80;;;;;;;;;;5051828;28;20021;-60
2023/06/20 07:47:33;;;;;;;5.28;4.78;;;;;;;;;;5051786;28;20032;-60
2023/06/20 07:49:59;;;;;;;6.13;4.88;;;;;;;;;;5051740;28;20100;-60
2023/06/20 07:52:24;;;;;;;5.63;4.45;;;;;;;;;;5050425;28;20041;-60
2023/06/20 07:54:50;;;;;;;8.13;5.00;;;;;;;;;;5051754;28;20032;-60
2023/06/20 07:57:15;;;;;;;7.53;4.72;;;;;;;;;;5051537;28;20029;-60
2023/06/20 07:59:41;;;;;;;5.80;4.70;;;;;;;;;;5052245;28;20044;-60
2023/06/20 08:02:06;;;;;;;6.07;4.93;;;;;;;;;;5051573;28;20017;-60
2023/06/20 08:04:32;;;;;;;5.20;4.63;;;;;;;;;;5051671;28;20025;-60
2023/06/20 08:06:58;;;;;;;5.20;4.70;;;;;;;;;;5051554;28;20025;-60
2023/06/20 08:09:23;;;;;;;7.65;4.57;;;;;;;;;;5051495;28;20025;-60
2023/06/20 08:11:49;;;;;;;5.60;4.85;;;;;;;;;;5052264;28;20354;-59
2023/06/20 08:14:16;;;;;;;4.70;4.25;;;;;;;;;;5055168;28;20032;-60
2023/06/20 08:16:42;;;;;;;6.43;4.60;;;;;;;;;;5054953;28;20036;-60
2023/06/20 08:19:07;;;;;;;9.07;5.03;;;;;;;;;;5055111;28;20075;-60
2023/06/20 08:21:33;;;;;;;5.50;4.53;;;;;;;;;;5054940;28;20025;-60
2023/06/20 08:23:59;;;;;;;5.88;4.65;;;;;;;;;;5054974;28;20527;-60
2023/06/20 08:26:24;;;;;;;6.22;4.80;;;;;;;;;;5054881;28;20033;-60
2023/06/20 08:28:50;;;;;;;5.95;4.82;;;;;;;;;;5053528;28;20033;-60
2023/06/20 08:31:15;;;;;;;5.60;4.68;;;;;;;;;;5054592;28;20028;-60
2023/06/20 08:33:41;;;;;;;5.20;4.45;;;;;;;;;;5054827;28;20108;-60
2023/06/20 08:36:09;;;;;;;6.50;4.97;;;;;;;;;;5054596;28;20035;-60
2023/06/20 08:38:34;;;;;;;7.03;4.72;;;;;;;;;;5054685;28;20025;-60
2023/06/20 08:41:02;;;;;;;4.95;4.28;;;;;;;;;;5054577;28;20071;-60
2023/06/20 08:43:29;;;;;;;8.50;5.15;;;;;;;;;;5054831;28;20029;-59
2023/06/20 08:45:55;;;;;;;8.27;4.97;;;;;;;;;;5054585;28;20043;-60
2023/06/20 08:48:25;;;;;;;5.97;4.82;;;;;;;;;;5054799;28;20091;-60
2023/06/20 08:50:51;;;;;;;6.97;5.00;;;;;;;;;;5052602;28;20021;-60
2023/06/20 08:53:17;;;;;;;5.55;4.55;;;;;;;;;;5049512;28;20465;-60
2023/06/20 08:55:44;;;;;;;5.63;4.90;;;;;;;;;;5049740;28;20047;-61
2023/06/20 08:58:11;;;;;;;5.20;4.70;;;;;;;;;;5046993;28;20477;-60
2023/06/20 09:00:40;;;;;;;6.15;4.70;;;;;;;;;;5047917;28;20025;-60
2023/06/20 09:03:06;;;;;;;6.40;4.70;;;;;;;;;;5048392;28;20017;-60
2023/06/20 09:05:33;;;;;;;5.15;4.10;;;;;;;;;;5049205;28;20571;-60
2023/06/20 09:07:58;;;;;;;5.35;4.72;;;;;;;;;;5049948;28;20017;-60
2023/06/20 09:10:25;;;;;;;7.55;4.68;;;;;;;;;;5051557;28;20078;-60
2023/06/20 09:12:58;;;;;;;5.07;4.50;;;;;;;;;;5049046;28;20021;-60
2023/06/20 09:15:25;;;;;;;6.72;4.85;;;;;;;;;;5052438;28;20054;-60
2023/06/20 09:17:52;;;;;;;5.80;4.75;;;;;;;;;;5049915;28;20166;-60
2023/06/20 09:20:19;;;;;;;5.88;4.88;;;;;;;;;;5051064;28;20032;-60
2023/06/20 09:22:45;;;;;;;5.10;4.57;;;;;;;;;;5050849;28;20096;-60
2023/06/20 09:25:12;;;;;;;5.45;4.57;;;;;;;;;;5049930;28;20168;-60
2023/06/20 09:27:40;;;;;;;5.55;4.60;;;;;;;;;;5047367;28;20028;-60
2023/06/20 09:30:07;;;;;;;5.38;4.60;;;;;;;;;;5051391;28;20132;-60
2023/06/20 09:32:39;;;;;;;4.55;4.15;;;;;;;;;;5052217;28;20041;-60
2023/06/20 09:35:07;;;;;;;6.22;4.35;;;;;;;;;;5051041;28;20025;-60
2023/06/20 09:37:42;;;;;;;5.28;4.60;;;;;;;;;;5049636;28;20063;-60
2023/06/20 09:40:35;;;;;;;5.13;4.35;;;;;;;;;;5049111;28;20100;-60
2023/06/20 09:43:01;;;;;;;5.28;4.65;;;;;;;;;;5051009;28;20603;-60
2023/06/20 09:45:28;;;;;;;6.25;4.68;;;;;;;;;;5052232;28;20033;-61
2023/06/20 09:47:55;;;;;;;4.50;4.07;;;;;;;;;;5052118;28;20049;-61
2023/06/20 09:50:23;;;;;;;5.32;4.55;;;;;;;;;;5052144;28;20098;-60
2023/06/20 09:53:09;;;;;;;5.18;4.38;;;;;;;;;;5049951;28;20065;-60
2023/06/20 09:55:36;;;;;;;5.18;4.43;;;;;;;;;;5052251;28;20029;-61
2023/06/20 09:58:04;;;;;;;5.20;4.63;;;;;;;;;;5051345;28;20029;-60
2023/06/20 10:00:31;;;;;;;8.95;4.50;;;;;;;;;;5046521;28;20082;-60
2023/06/20 10:03:03;;;;;;;6.43;4.60;;;;;;;;;;5052058;28;20085;-60
2023/06/20 10:05:32;;;;;;;5.28;4.20;;;;;;;;;;5050410;28;20021;-60
2023/06/20 10:07:59;;;;;;;4.53;4.13;;;;;;;;;;5035058;28;20029;-60
2023/06/20 10:10:25;;;;;;;5.95;4.40;;;;;;;;;;5052765;28;20104;-59
2023/06/20 10:12:51;;;;;;;6.90;4.13;;;;;;;;;;5052703;28;20108;-60
2023/06/20 10:15:18;;;;;;;4.28;3.88;;;;;;;;;;5052721;28;20029;-61
2023/06/20 10:17:48;;;;;;;4.65;4.25;;;;;;;;;;5039887;28;20034;-60
2023/06/20 10:20:25;;;;;;;5.78;4.30;;;;;;;;;;5032691;28;20382;-60
2023/06/20 10:22:50;;;;;;;5.13;4.63;;;;;;;;;;5031267;28;20481;-60
2023/06/20 10:25:18;;;;;;;4.70;4.30;;;;;;;;;;5038952;28;20079;-60
2023/06/20 10:27:53;;;;;;;5.80;4.43;;;;;;;;;;5049092;28;20060;-60
2023/06/20 10:30:50;;;;;;;9.38;4.82;;;;;;;;;;5050462;28;20028;-60
2023/06/20 10:33:41;;;;;;;8.00;4.47;;;;;;;;;;5050808;28;20099;-59
2023/06/20 10:36:11;;;;;;;11.35;4.43;;;;;;;;;;5049496;28;20037;-60
2023/06/20 10:38:39;;;;;;;6.07;4.30;;;;;;;;;;5049713;28;20496;-59
2023/06/20 10:41:10;;;;;;;7.15;4.05;;;;;;;;;;5042547;28;20087;-60
2023/06/20 10:43:59;;;;;;;10.68;4.55;;;;;;;;;;5031237;28;20037;-59
2023/06/20 10:46:36;;;;;;;6.32;4.20;;;;;;;;;;5030845;28;20036;-59
2023/06/20 10:49:07;;;;;;;6.38;3.95;;;;;;;;;;5030987;28;20025;-59
2023/06/20 10:51:57;;;;;;;6.90;4.70;;;;;;;;;;5030682;28;20030;-60
2023/06/20 10:54:34;;;;;;;5.97;4.00;;;;;;;;;;5029494;28;20060;-59
2023/06/20 10:56:59;;;;;;;5.50;4.05;;;;;;;;;;5030774;28;20413;-59
2023/06/20 10:59:25;;;;;;;7.85;3.97;;;;;;;;;;5030726;28;20021;-60
2023/06/20 11:01:51;;;;;;;5.00;4.32;;;;;;;;;;5043571;28;20072;-60
2023/06/20 11:04:17;;;;;;;4.35;3.92;;;;;;;;;;5050503;28;20562;-59
2023/06/20 11:06:43;;;;;;;6.07;4.28;;;;;;;;;;5050528;28;20573;-60
2023/06/20 11:09:20;;;;;;;4.75;3.95;;;;;;;;;;5050437;28;20151;-59
2023/06/20 11:11:46;;;;;;;5.40;4.78;;;;;;;;;;5050493;28;20032;-60
2023/06/20 11:14:13;;;;;;;6.95;4.38;;;;;;;;;;5050401;28;20025;-59
2023/06/20 11:16:43;;;;;;;7.40;4.35;;;;;;;;;;5050440;28;20108;-60
2023/06/20 11:19:09;;;;;;;7.95;4.70;;;;;;;;;;5050265;28;20481;-60
2023/06/20 11:21:35;;;;;;;6.13;4.05;;;;;;;;;;5050347;28;20090;-60
2023/06/20 11:24:02;;;;;;;5.20;4.43;;;;;;;;;;5050283;28;20040;-60
2023/06/20 11:26:31;;;;;;;4.93;4.18;;;;;;;;;;5050319;28;20576;-59
2023/06/20 11:28:58;;;;;;;5.65;4.80;;;;;;;;;;5050367;28;20029;-59
2023/06/20 11:31:24;;;;;;;4.53;4.13;;;;;;;;;;5050267;28;20110;-59
2023/06/20 11:33:49;;;;;;;4.65;4.20;;;;;;;;;;5050672;28;20088;-59
2023/06/20 11:36:15;;;;;;;8.07;4.28;;;;;;;;;;5050166;28;20459;-58
2023/06/20 11:38:41;;;;;;;4.57;4.15;;;;;;;;;;5050606;28;20032;-59
2023/06/20 11:41:08;;;;;;;8.00;4.88;;;;;;;;;;5048678;28;20025;-60
2023/06/20 11:43:36;;;;;;;6.10;4.13;;;;;;;;;;5048940;28;20104;-59
2023/06/20 11:46:02;;;;;;;5.65;3.90;;;;;;;;;;5050964;28;20029;-60
2023/06/20 11:48:28;;;;;;;5.03;4.22;;;;;;;;;;5053579;28;20813;-59
2023/06/20 11:51:06;;;;;;;6.07;3.90;;;;;;;;;;5054372;28;20032;-59
2023/06/20 11:53:37;;;;;;;4.82;4.40;;;;;;;;;;5053893;28;20029;-60
2023/06/20 11:56:08;;;;;;;5.07;4.00;;;;;;;;;;5053948;28;20028;-59
2023/06/20 11:58:45;;;;;;;6.88;4.30;;;;;;;;;;5053935;28;20389;-58
2023/06/20 12:01:16;;;;;;;7.75;4.43;;;;;;;;;;5053825;28;20032;-60
2023/06/20 12:03:43;;;;;;;6.07;4.30;;;;;;;;;;5053944;28;20025;-58
2023/06/20 12:06:34;;;;;;;17.42;4.80;;;;;;;;;;5053789;28;20111;-59
2023/06/20 12:09:09;;;;;;;7.35;4.38;;;;;;;;;;5053479;28;20036;-59
2023/06/20 12:11:45;;;;;;;7.10;4.18;;;;;;;;;;5053979;28;20037;-59
2023/06/20 12:14:11;;;;;;;7.35;4.07;;;;;;;;;;5053544;28;20129;-59
2023/06/20 12:16:37;;;;;;;5.75;4.38;;;;;;;;;;5053464;28;20040;-60
2023/06/20 12:19:03;;;;;;;6.55;4.10;;;;;;;;;;5053747;28;20025;-59
2023/06/20 12:21:28;;;;;;;6.47;4.07;;;;;;;;;;5053562;28;20566;-59
2023/06/20 12:23:55;;;;;;;4.95;4.07;;;;;;;;;;5053352;28;20017;-59
2023/06/20 12:26:22;;;;;;;5.53;4.18;;;;;;;;;;5053171;28;20029;-57
2023/06/20 12:28:47;;;;;;;11.52;4.22;;;;;;;;;;5051967;28;20517;-56
2023/06/20 12:31:14;;;;;;;4.10;3.70;;;;;;;;;;5053078;28;20052;-58
2023/06/20 12:33:39;;;;;;;6.38;3.75;;;;;;;;;;5053557;28;20032;-58
2023/06/20 12:36:05;;;;;;;17.95;4.38;;;;;;;;;;5052752;28;20504;-58
2023/06/20 12:38:31;;;;;;;6.40;4.00;;;;;;;;;;5053173;28;20024;-57
2023/06/20 12:40:58;;;;;;;7.85;4.00;;;;;;;;;;5051733;28;20029;-58
2023/06/20 12:43:23;;;;;;;8.23;4.50;;;;;;;;;;5053188;28;20025;-58
2023/06/20 12:45:49;;;;;;;7.65;3.85;;;;;;;;;;5052922;28;20033;-58
2023/06/20 12:48:15;;;;;;;8.63;3.83;;;;;;;;;;5051416;28;20500;-58
2023/06/20 12:50:40;;;;;;;20.38;3.97;;;;;;;;;;5052393;28;20473;-58
2023/06/20 12:53:06;;;;;;;11.52;3.95;;;;;;;;;;5052426;28;20044;-58
2023/06/20 12:55:32;;;;;;;4.30;3.88;;;;;;;;;;5052548;28;20029;-59
2023/06/20 12:57:58;;;;;;;5.13;3.85;;;;;;;;;;5051405;28;20736;-57
2023/06/20 13:00:25;;;;;;;5.88;3.80;;;;;;;;;;5052305;28;20033;-59
2023/06/20 13:02:51;;;;;;;8.23;3.85;;;;;;;;;;5052541;28;20047;-60
2023/06/20 13:05:16;;;;;;;8.80;3.72;;;;;;;;;;5052406;28;20536;-59
2023/06/20 13:07:42;;;;;;;11.07;4.20;;;;;;;;;;5052056;28;20029;-59
2023/06/20 13:10:08;;;;;;;7.32;4.03;;;;;;;;;;5052112;28;20469;-59
2023/06/20 13:12:35;;;;;;;5.00;3.70;;;;;;;;;;5052157;28;20033;-59
2023/06/20 13:15:07;;;;;;;5.72;3.92;;;;;;;;;;5051809;28;20037;-59
2023/06/20 13:17:33;;;;;;;8.32;4.03;;;;;;;;;;5051000;28;20029;-60
2023/06/20 13:19:59;;;;;;;49.72;6.53;;;;;;;;;;5049268;28;20021;-59
2023/06/20 13:22:25;;;;;;;27.05;4.72;;;;;;;;;;5050489;28;20078;-59
2023/06/20 13:24:51;;;;;;;20.55;4.60;;;;;;;;;;5051866;28;20104;-59
2023/06/20 13:27:20;;;;;;;48.13;5.95;;;;;;;;;;5051876;28;20036;-60
2023/06/20 13:29:46;;;;;;;10.93;4.47;;;;;;;;;;5051735;28;20017;-60
2023/06/20 13:32:11;;;;;;;8.93;4.10;;;;;;;;;;5049463;28;20042;-59
2023/06/20 13:34:37;;;;;;;5.30;4.07;;;;;;;;;;5031401;28;20035;-59
2023/06/20 13:37:02;;;;;;;9.93;4.30;;;;;;;;;;5031727;28;20029;-59
2023/06/20 13:39:30;;;;;;;8.10;3.90;;;;;;;;;;5041956;28;20112;-59
2023/06/20 13:41:56;;;;;;;6.85;4.32;;;;;;;;;;5051336;28;20036;-59
2023/06/20 13:44:23;;;;;;;12.43;4.15;;;;;;;;;;5051583;28;20056;-59
2023/06/20 13:46:49;;;;;;;6.28;3.90;;;;;;;;;;5051290;28;20044;-58
2023/06/20 13:49:15;;;;;;;7.30;4.32;;;;;;;;;;5051235;28;20112;-58
2023/06/20 13:51:41;;;;;;;6.07;4.22;;;;;;;;;;5051297;28;20115;-59
2023/06/20 13:54:06;;;;;;;7.60;4.65;;;;;;;;;;5051169;28;20124;-59
2023/06/20 13:56:33;;;;;;;5.72;4.00;;;;;;;;;;5051688;28;20079;-59
2023/06/20 13:58:59;;;;;;;6.15;3.85;;;;;;;;;;5051454;28;20025;-59
2023/06/20 14:01:24;;;;;;;6.28;4.25;;;;;;;;;;5051076;28;20427;-59
2023/06/20 14:03:51;;;;;;;9.57;4.13;;;;;;;;;;5051193;28;20668;-59
2023/06/20 14:06:17;;;;;;;6.38;4.10;;;;;;;;;;5050976;28;20056;-59
2023/06/20 14:08:43;;;;;;;10.63;4.15;;;;;;;;;;5050833;28;20037;-59
2023/06/20 14:11:09;;;;;;;6.93;3.90;;;;;;;;;;5050877;28;20025;-59
2023/06/20 14:13:35;;;;;;;18.45;5.53;;;;;;;;;;5050851;28;20497;-59
2023/06/20 14:16:01;;;;;;;9.75;4.60;;;;;;;;;;5050900;28;20058;-60
2023/06/20 14:18:26;;;;;;;15.20;5.50;;;;;;;;;;5046773;28;20079;-59
2023/06/20 14:20:52;;;;;;;11.63;6.18;;;;;;;;;;5050838;28;20794;-59
2023/06/20 14:23:18;;;;;;;12.30;5.85;;;;;;;;;;5050655;28;20021;-59
2023/06/20 14:25:43;;;;;;;12.02;6.13;;;;;;;;;;5047109;28;20496;-59
2023/06/20 14:28:11;;;;;;;13.02;5.70;;;;;;;;;;5050661;28;20104;-59
2023/06/20 14:30:38;;;;;;;6.47;5.15;;;;;;;;;;5050579;28;20028;-59
2023/06/20 14:33:03;;;;;;;13.15;5.82;;;;;;;;;;5050654;28;20520;-59
2023/06/20 14:35:29;;;;;;;14.45;5.75;;;;;;;;;;5050649;28;20102;-59
2023/06/20 14:37:55;;;;;;;9.80;5.78;;;;;;;;;;5050454;28;20033;-59
2023/06/20 14:40:21;;;;;;;9.27;5.35;;;;;;;;;;5050383;28;20389;-59